createdAt,value
2017-01-07T00:02:07.953Z,1029.14
2017-01-07T00:07:04.331Z,1029.29
2017-01-07T00:12:01.517Z,1029.14
2017-01-07T00:16:57.705Z,1029.20
2017-01-07T00:21:53.925Z,1029.15
2017-01-07T00:26:50.129Z,1029.06
2017-01-07T00:31:45.998Z,1029.01
2017-01-07T00:36:42.357Z,1028.93
2017-01-07T00:41:38.959Z,1029.03
2017-01-07T00:46:35.391Z,1029.03
2017-01-07T00:51:31.765Z,1028.66
2017-01-07T00:56:28.058Z,1028.78
2017-01-07T01:01:24.342Z,1028.71
2017-01-07T01:06:20.878Z,1028.78
2017-01-07T01:11:17.152Z,1028.82
2017-01-07T01:16:13.979Z,1028.86
2017-01-07T01:21:10.405Z,1028.66
2017-01-07T01:26:06.657Z,1028.79
2017-01-07T01:31:02.947Z,1028.68
2017-01-07T01:35:59.617Z,1028.65
2017-01-07T01:40:55.804Z,1028.83
2017-01-07T01:45:51.985Z,1028.52
2017-01-07T01:50:48.265Z,1028.59
2017-01-07T01:55:44.612Z,1028.39
2017-01-07T02:00:40.775Z,1028.40
2017-01-07T02:05:37.058Z,1028.24
2017-01-07T02:10:33.176Z,1028.27
2017-01-07T02:15:29.424Z,1028.22
2017-01-07T02:20:25.781Z,1028.29
2017-01-07T02:25:21.911Z,1028.26
2017-01-07T02:30:18.232Z,1028.13
2017-01-07T02:35:14.445Z,1028.08
2017-01-07T02:40:11.151Z,1028.01
2017-01-07T02:45:07.427Z,1028.08
2017-01-07T02:50:03.639Z,1027.89
2017-01-07T02:55:00.884Z,1027.86
2017-01-07T02:59:57.154Z,1027.89
2017-01-07T03:04:53.278Z,1027.78
2017-01-07T03:09:49.754Z,1027.75
2017-01-07T03:14:47.322Z,1027.61
2017-01-07T03:19:43.285Z,1027.71
2017-01-07T03:24:40.357Z,1027.63
2017-01-07T03:29:37.346Z,1027.60
2017-01-07T03:34:33.534Z,1027.65
2017-01-07T03:39:29.871Z,1027.62
2017-01-07T03:44:26.160Z,1027.58
2017-01-07T03:49:22.628Z,1027.49
2017-01-07T03:54:19.095Z,1027.43
2017-01-07T03:59:15.294Z,1027.52
2017-01-07T04:04:11.270Z,1027.41
2017-01-07T04:09:07.526Z,1027.29
2017-01-07T04:14:03.728Z,1027.20
2017-01-07T04:19:00.147Z,1027.12
2017-01-07T04:23:56.503Z,1027.15
2017-01-07T04:28:52.853Z,1027.07
2017-01-07T04:33:49.023Z,1026.85
2017-01-07T04:38:45.126Z,1026.81
2017-01-07T04:43:42.195Z,1026.85
2017-01-07T04:48:39.122Z,1026.79
2017-01-07T04:53:35.233Z,1026.79
2017-01-07T04:58:31.422Z,1026.72
2017-01-07T05:03:27.756Z,1026.73
2017-01-07T05:08:24.026Z,1026.52
2017-01-07T05:13:20.517Z,1026.53
2017-01-07T05:18:16.741Z,1026.55
2017-01-07T05:23:12.767Z,1026.55
2017-01-07T05:28:09.044Z,1026.38
2017-01-07T05:33:05.182Z,1026.38
2017-01-07T05:38:01.406Z,1026.42
2017-01-07T05:42:57.851Z,1026.51
2017-01-07T05:47:54.188Z,1026.46
2017-01-07T05:52:50.450Z,1026.40
2017-01-07T05:57:46.118Z,1026.39
2017-01-07T06:02:42.548Z,1026.22
2017-01-07T06:07:38.808Z,1026.19
2017-01-07T06:12:35.333Z,1026.24
2017-01-07T06:17:31.499Z,1026.21
2017-01-07T06:22:27.779Z,1026.23
2017-01-07T06:27:23.929Z,1026.15
2017-01-07T06:32:20.795Z,1026.04
2017-01-07T06:37:17.766Z,1026.09
2017-01-07T06:42:14.039Z,1026.17
2017-01-07T06:47:10.188Z,1026.22
2017-01-07T06:52:06.386Z,1026.14
2017-01-07T06:57:02.636Z,1026.08
2017-01-07T07:01:58.783Z,1026.00
2017-01-07T07:06:56.207Z,1025.93
2017-01-07T07:11:52.093Z,1025.93
2017-01-07T07:16:48.635Z,1025.96
2017-01-07T07:21:44.707Z,1025.86
2017-01-07T07:26:41.218Z,1025.92
2017-01-07T07:31:38.114Z,1025.84
2017-01-07T07:36:34.399Z,1025.79
2017-01-07T07:41:30.335Z,1025.84
2017-01-07T07:46:27.295Z,1025.78
2017-01-07T07:51:23.619Z,1025.88
2017-01-07T07:56:19.851Z,1025.80
2017-01-07T08:01:16.366Z,1025.81
2017-01-07T08:06:12.642Z,1025.74
2017-01-07T08:11:08.742Z,1025.70
2017-01-07T08:16:04.890Z,1025.66
2017-01-07T08:21:01.258Z,1025.61
2017-01-07T08:25:58.411Z,1025.56
2017-01-07T08:30:54.647Z,1025.56
2017-01-07T08:35:50.936Z,1025.48
2017-01-07T08:40:47.263Z,1025.51
2017-01-07T08:45:43.678Z,1025.25
2017-01-07T08:50:40.258Z,1025.16
2017-01-07T08:55:36.579Z,1025.17
2017-01-07T09:00:32.991Z,1025.11
2017-01-07T09:05:29.374Z,1024.99
2017-01-07T09:10:26.698Z,1024.92
2017-01-07T09:15:22.939Z,1024.90
2017-01-07T09:20:19.372Z,1024.80
2017-01-07T09:25:16.534Z,1024.66
2017-01-07T09:30:13.513Z,1024.70
2017-01-07T09:35:10.689Z,1024.69
2017-01-07T09:40:07.193Z,1024.66
2017-01-07T09:45:04.266Z,1024.62
2017-01-07T09:50:00.279Z,1024.76
2017-01-07T09:54:56.483Z,1024.57
2017-01-07T09:59:55.237Z,1024.60
2017-01-07T10:04:51.712Z,1024.62
2017-01-07T10:09:48.412Z,1024.43
2017-01-07T10:14:45.532Z,1024.54
2017-01-07T10:19:41.557Z,1024.46
2017-01-07T10:24:38.415Z,1024.38
2017-01-07T10:29:34.631Z,1024.20
2017-01-07T10:34:31.822Z,1024.31
2017-01-07T10:39:28.053Z,1024.11
2017-01-07T10:44:24.431Z,1024.06
2017-01-07T10:49:20.862Z,1024.19
2017-01-07T10:54:17.060Z,1024.08
2017-01-07T10:59:13.327Z,1024.14
2017-01-07T11:04:10.358Z,1024.12
2017-01-07T11:09:06.567Z,1024.10
2017-01-07T11:14:03.049Z,1024.16
2017-01-07T11:18:59.315Z,1023.99
2017-01-07T11:23:55.637Z,1023.87
2017-01-07T11:28:51.815Z,1023.85
2017-01-07T11:33:47.924Z,1023.77
2017-01-07T11:38:44.542Z,1023.66
2017-01-07T11:43:40.901Z,1023.70
2017-01-07T11:48:37.316Z,1023.67
2017-01-07T11:53:33.600Z,1023.50
2017-01-07T11:58:29.963Z,1023.50
2017-01-07T12:03:26.311Z,1023.33
2017-01-07T12:08:22.690Z,1023.31
2017-01-07T12:13:18.736Z,1023.24
2017-01-07T12:18:14.993Z,1023.14
2017-01-07T12:23:11.198Z,1023.07
2017-01-07T12:28:07.531Z,1022.93
2017-01-07T12:33:03.956Z,1022.81
2017-01-07T12:38:00.089Z,1022.81
2017-01-07T12:42:56.371Z,1022.85
2017-01-07T12:47:52.615Z,1022.91
2017-01-07T12:52:49.018Z,1022.75
2017-01-07T12:57:45.237Z,1022.83
2017-01-07T13:02:41.425Z,1022.65
2017-01-07T13:07:37.716Z,1022.63
2017-01-07T13:12:33.831Z,1022.66
2017-01-07T13:17:30.076Z,1022.57
2017-01-07T13:22:26.337Z,1022.62
2017-01-07T13:27:22.588Z,1022.63
2017-01-07T13:32:18.807Z,1022.60
2017-01-07T13:37:15.069Z,1022.49
2017-01-07T13:42:11.737Z,1022.36
2017-01-07T13:47:08.409Z,1022.31
2017-01-07T13:52:05.481Z,1022.36
2017-01-07T13:57:01.763Z,1022.48
2017-01-07T14:01:58.113Z,1022.41
2017-01-07T14:06:54.307Z,1022.23
2017-01-07T14:11:50.973Z,1022.23
2017-01-07T14:16:47.740Z,1022.23
2017-01-07T14:21:44.795Z,1022.22
2017-01-07T14:26:40.769Z,1022.29
2017-01-07T14:31:37.180Z,1022.12
2017-01-07T14:36:33.563Z,1022.10
2017-01-07T14:41:29.771Z,1022.06
2017-01-07T14:46:25.940Z,1022.02
2017-01-07T14:51:22.526Z,1021.98
2017-01-07T14:56:18.540Z,1021.83
2017-01-07T15:01:14.684Z,1021.99
2017-01-07T15:06:10.956Z,1021.88
2017-01-07T15:11:07.058Z,1021.75
2017-01-07T15:16:03.366Z,1021.68
2017-01-07T15:21:00.027Z,1021.68
2017-01-07T15:25:56.282Z,1021.55
2017-01-07T15:30:52.167Z,1021.52
2017-01-07T15:35:48.433Z,1021.54
2017-01-07T15:40:44.838Z,1021.59
2017-01-07T15:45:41.136Z,1021.59
2017-01-07T15:50:37.380Z,1021.52
2017-01-07T15:55:33.562Z,1021.51
2017-01-07T16:00:29.994Z,1021.59
2017-01-07T16:05:26.252Z,1021.63
2017-01-07T16:10:22.546Z,1021.58
2017-01-07T16:15:18.888Z,1021.60
2017-01-07T16:20:15.201Z,1021.58
2017-01-07T16:25:12.144Z,1021.63
2017-01-07T16:30:08.315Z,1021.60
2017-01-07T16:35:04.604Z,1021.54
2017-01-07T16:40:01.006Z,1021.49
2017-01-07T16:44:57.295Z,1021.47
2017-01-07T16:49:53.552Z,1021.40
2017-01-07T16:54:49.340Z,1021.47
2017-01-07T16:59:46.300Z,1021.47
2017-01-07T17:04:42.553Z,1021.37
2017-01-07T17:09:38.926Z,1021.46
2017-01-07T17:14:35.223Z,1021.35
2017-01-07T17:19:31.823Z,1021.32
2017-01-07T17:24:28.446Z,1021.36
2017-01-07T17:29:24.589Z,1021.49
2017-01-07T17:34:20.932Z,1021.39
2017-01-07T17:39:17.153Z,1021.36
2017-01-07T17:44:13.448Z,1021.64
2017-01-07T17:49:09.745Z,1021.63
2017-01-07T17:54:06.526Z,1021.63
2017-01-07T17:59:02.453Z,1021.61
2017-01-07T18:03:59.746Z,1021.65
2017-01-07T18:08:56.006Z,1021.70
2017-01-07T18:13:52.223Z,1021.60
2017-01-07T18:18:48.363Z,1021.65
2017-01-07T18:23:44.783Z,1021.48
2017-01-07T18:28:41.017Z,1021.48
2017-01-07T18:33:37.421Z,1021.53
2017-01-07T18:38:33.796Z,1021.53
2017-01-07T18:43:30.007Z,1021.52
2017-01-07T18:48:26.396Z,1021.44
2017-01-07T18:53:22.614Z,1021.34
2017-01-07T18:58:19.010Z,1021.31
2017-01-07T19:03:15.246Z,1021.35
2017-01-07T19:08:11.685Z,1021.33
2017-01-07T19:13:08.112Z,1021.16
2017-01-07T19:18:04.123Z,1021.09
2017-01-07T19:23:01.229Z,1021.15
2017-01-07T19:27:57.684Z,1021.01
2017-01-07T19:32:54.026Z,1021.04
2017-01-07T19:37:50.237Z,1020.92
2017-01-07T19:42:47.400Z,1020.89
2017-01-07T19:47:43.620Z,1020.87
2017-01-07T19:52:40.624Z,1020.89
2017-01-07T19:57:36.829Z,1021.01
2017-01-07T20:02:33.083Z,1021.05
2017-01-07T20:07:29.766Z,1021.11
2017-01-07T20:12:25.991Z,1021.16
2017-01-07T20:17:22.393Z,1021.10
2017-01-07T20:22:18.634Z,1021.10
2017-01-07T20:27:14.811Z,1021.07
2017-01-07T20:32:11.115Z,1021.15
2017-01-07T20:37:07.242Z,1021.22
2017-01-07T20:42:04.238Z,1021.08
2017-01-07T20:47:00.535Z,1021.11
2017-01-07T20:51:57.280Z,1021.15
2017-01-07T20:56:53.636Z,1021.15
2017-01-07T21:01:50.668Z,1021.14
2017-01-07T21:06:46.961Z,1021.14
2017-01-07T21:11:43.083Z,1021.15
2017-01-07T21:16:39.386Z,1021.16
2017-01-07T21:21:36.850Z,1021.10
2017-01-07T21:26:32.900Z,1021.01
2017-01-07T21:31:29.956Z,1021.08
2017-01-07T21:36:26.302Z,1021.23
2017-01-07T21:41:23.265Z,1021.26
2017-01-07T21:46:19.811Z,1021.16
2017-01-07T21:51:16.216Z,1021.21
2017-01-07T21:56:12.626Z,1021.24
2017-01-07T22:01:08.961Z,1021.19
2017-01-07T22:06:05.251Z,1021.18
2017-01-07T22:11:01.688Z,1021.23
2017-01-07T22:15:58.813Z,1021.22
2017-01-07T22:20:55.087Z,1021.21
2017-01-07T22:25:51.504Z,1021.31
2017-01-07T22:30:47.900Z,1021.21
2017-01-07T22:35:45.053Z,1021.25
2017-01-07T22:40:42.165Z,1021.12
2017-01-07T22:45:38.751Z,1021.04
2017-01-07T22:50:35.126Z,1021.18
2017-01-07T22:55:31.638Z,1021.15
2017-01-07T23:00:27.842Z,1021.20
2017-01-07T23:05:24.162Z,1021.18
2017-01-07T23:10:20.628Z,1021.16
2017-01-07T23:15:16.948Z,1021.25
2017-01-07T23:20:13.326Z,1021.27
2017-01-07T23:25:09.596Z,1021.17
2017-01-07T23:30:05.876Z,1021.16
2017-01-07T23:35:02.295Z,1021.20
2017-01-07T23:39:58.700Z,1021.15
2017-01-07T23:44:55.010Z,1021.11
2017-01-07T23:49:51.387Z,1021.02
2017-01-07T23:54:48.100Z,1020.99
2017-01-07T23:59:44.441Z,1021.02
